createdAt,value
2017-11-21T00:00:13.271Z,0
2017-11-21T00:01:23.066Z,0
2017-11-21T00:02:33.179Z,0
2017-11-21T00:03:43.000Z,0
2017-11-21T00:04:52.811Z,0
2017-11-21T00:06:02.650Z,0
2017-11-21T00:07:12.739Z,0
2017-11-21T00:08:22.841Z,0
2017-11-21T00:09:32.928Z,0
2017-11-21T00:10:42.480Z,0
2017-11-21T00:11:52.573Z,0
2017-11-21T00:13:02.695Z,0
2017-11-21T00:14:12.780Z,0
2017-11-21T00:15:22.878Z,0
2017-11-21T00:16:32.959Z,0
2017-11-21T00:17:42.772Z,0
2017-11-21T00:18:52.577Z,0
2017-11-21T00:20:02.128Z,0
2017-11-21T00:21:12.200Z,0
2017-11-21T00:22:22.298Z,0
2017-11-21T00:23:32.111Z,0
2017-11-21T00:24:41.921Z,0
2017-11-21T00:25:51.541Z,0
2017-11-21T00:27:01.384Z,0
2017-11-21T00:28:11.191Z,0
2017-11-21T00:29:21.268Z,0
2017-11-21T00:30:31.071Z,0
2017-11-21T00:31:40.907Z,0
2017-11-21T00:32:50.717Z,0
2017-11-21T00:34:00.809Z,0
2017-11-21T00:35:10.609Z,0
2017-11-21T00:36:20.144Z,0
2017-11-21T00:37:30.019Z,0
2017-11-21T00:38:39.557Z,0
2017-11-21T00:39:48.838Z,0
2017-11-21T00:40:58.906Z,0
2017-11-21T00:42:21.782Z,0
2017-11-21T00:43:31.843Z,0
2017-11-21T00:44:41.656Z,0
2017-11-21T00:45:50.930Z,0
2017-11-21T00:47:01.022Z,0
2017-11-21T00:48:11.131Z,0
2017-11-21T00:49:20.938Z,0
2017-11-21T00:50:30.738Z,0
2017-11-21T00:51:40.801Z,0
2017-11-21T00:52:50.068Z,0
2017-11-21T00:54:01.356Z,0
2017-11-21T00:55:11.432Z,0
2017-11-21T00:56:21.512Z,0
2017-11-21T00:57:31.597Z,0
2017-11-21T00:58:41.658Z,0
2017-11-21T00:59:51.461Z,0
2017-11-21T01:01:01.255Z,0
2017-11-21T01:02:10.793Z,0
2017-11-21T01:03:20.335Z,0
2017-11-21T01:04:30.176Z,0
2017-11-21T01:05:40.011Z,0
2017-11-21T01:06:50.069Z,0
2017-11-21T01:07:59.616Z,0
2017-11-21T01:09:09.684Z,0
2017-11-21T01:10:19.753Z,0
2017-11-21T01:11:29.552Z,0
2017-11-21T01:12:39.640Z,0
2017-11-21T01:13:49.438Z,0
2017-11-21T01:14:59.258Z,0
2017-11-21T01:16:09.069Z,0
2017-11-21T01:17:19.195Z,0
2017-11-21T01:18:29.023Z,0
2017-11-21T01:19:39.117Z,0
2017-11-21T01:20:49.992Z,0
2017-11-21T01:21:59.809Z,0
2017-11-21T01:23:09.947Z,0
2017-11-21T01:24:20.035Z,0
2017-11-21T01:25:30.098Z,0
2017-11-21T01:26:39.905Z,0
2017-11-21T01:27:49.714Z,0
2017-11-21T01:28:59.537Z,0
2017-11-21T01:30:09.350Z,0
2017-11-21T01:31:19.446Z,0
2017-11-21T01:32:29.534Z,0
2017-11-21T01:33:39.326Z,0
2017-11-21T01:34:49.405Z,0
2017-11-21T01:35:59.209Z,0
2017-11-21T01:37:09.025Z,0
2017-11-21T01:38:18.837Z,0
2017-11-21T01:39:28.915Z,0
2017-11-21T01:40:38.725Z,0
2017-11-21T01:41:48.791Z,0
2017-11-21T01:42:58.856Z,0
2017-11-21T01:44:08.651Z,0
2017-11-21T01:45:18.732Z,0
2017-11-21T01:46:28.535Z,0
2017-11-21T01:47:38.603Z,0
2017-11-21T01:48:48.664Z,0
2017-11-21T01:49:58.212Z,0
2017-11-21T01:51:08.018Z,0
2017-11-21T01:52:18.136Z,0
2017-11-21T01:53:27.947Z,0
2017-11-21T01:54:37.497Z,0
2017-11-21T01:55:47.577Z,0
2017-11-21T01:56:57.638Z,0
2017-11-21T01:58:07.715Z,0
2017-11-21T01:59:17.780Z,0
2017-11-21T02:00:28.061Z,0
2017-11-21T02:01:38.133Z,0
2017-11-21T02:02:48.269Z,0
2017-11-21T02:03:58.352Z,0
2017-11-21T02:05:08.148Z,0
2017-11-21T02:06:18.230Z,0
2017-11-21T02:07:28.040Z,0
2017-11-21T02:08:38.115Z,0
2017-11-21T02:09:47.934Z,0
2017-11-21T02:10:57.474Z,0
2017-11-21T02:12:07.532Z,0
2017-11-21T02:13:17.601Z,0
2017-11-21T02:14:27.407Z,0
2017-11-21T02:15:37.218Z,0
2017-11-21T02:16:47.030Z,0
2017-11-21T02:17:57.113Z,0
2017-11-21T02:19:07.182Z,0
2017-11-21T02:20:17.326Z,0
2017-11-21T02:21:27.392Z,0
2017-11-21T02:22:37.465Z,0
2017-11-21T02:23:47.005Z,0
2017-11-21T02:24:57.066Z,0
2017-11-21T02:26:06.863Z,0
2017-11-21T02:27:16.938Z,0
2017-11-21T02:28:26.726Z,0
2017-11-21T02:29:36.268Z,0
2017-11-21T02:30:46.337Z,0
2017-11-21T02:31:56.465Z,0
2017-11-21T02:33:06.539Z,0
2017-11-21T02:34:16.647Z,0
2017-11-21T02:35:26.461Z,0
2017-11-21T02:36:36.567Z,0
2017-11-21T02:37:46.162Z,0
2017-11-21T02:38:56.253Z,0
2017-11-21T02:40:06.336Z,0
2017-11-21T02:41:16.137Z,0
2017-11-21T02:42:26.191Z,0
2017-11-21T02:43:36.043Z,0
2017-11-21T02:44:45.852Z,0
2017-11-21T02:45:55.655Z,0
2017-11-21T02:47:05.476Z,0
2017-11-21T02:48:15.023Z,0
2017-11-21T02:49:25.116Z,0
2017-11-21T02:50:34.921Z,0
2017-11-21T02:51:45.017Z,0
2017-11-21T02:52:54.841Z,0
2017-11-21T02:54:04.928Z,0
2017-11-21T02:55:14.778Z,0
2017-11-21T02:56:24.574Z,0
2017-11-21T02:57:34.145Z,0
2017-11-21T02:58:44.202Z,0
2017-11-21T02:59:54.275Z,0
2017-11-21T03:01:04.351Z,0
2017-11-21T03:02:14.152Z,0
2017-11-21T03:33:57.796Z,0
2017-11-21T03:35:07.861Z,0
2017-11-21T03:36:17.926Z,0
2017-11-21T03:37:28.002Z,0
2017-11-21T03:38:38.067Z,0
2017-11-21T03:39:47.919Z,0
2017-11-21T03:40:57.982Z,0
2017-11-21T03:42:08.198Z,0
2017-11-21T03:43:18.279Z,0
2017-11-21T03:44:28.352Z,0
2017-11-21T03:45:38.468Z,0
2017-11-21T03:46:48.279Z,0
2017-11-21T03:47:57.811Z,0
2017-11-21T03:49:07.884Z,0
2017-11-21T03:50:17.960Z,0
2017-11-21T03:51:27.760Z,0
2017-11-21T03:52:37.857Z,0
2017-11-21T03:53:47.943Z,0
2017-11-21T03:54:57.732Z,0
2017-11-21T03:56:07.575Z,0
2017-11-21T03:57:17.703Z,0
2017-11-21T03:58:27.775Z,0
2017-11-21T03:59:37.598Z,0
2017-11-21T04:00:47.425Z,0
2017-11-21T04:01:57.233Z,0
2017-11-21T04:03:07.304Z,0
2017-11-21T04:04:17.132Z,0
2017-11-21T04:05:26.674Z,0
2017-11-21T04:06:36.739Z,0
2017-11-21T04:07:46.283Z,0
2017-11-21T04:08:56.407Z,0
2017-11-21T04:10:06.464Z,0
2017-11-21T04:11:16.282Z,0
2017-11-21T04:12:26.371Z,0
2017-11-21T04:13:36.592Z,0
2017-11-21T04:14:46.742Z,0
2017-11-21T04:15:56.539Z,0
2017-11-21T04:17:06.090Z,0
2017-11-21T04:18:15.637Z,0
2017-11-21T04:19:24.926Z,0
2017-11-21T04:20:35.636Z,0
2017-11-21T04:21:45.193Z,0
2017-11-21T04:22:55.015Z,0
2017-11-21T04:24:05.143Z,0
2017-11-21T04:25:14.947Z,0
2017-11-21T04:26:24.749Z,0
2017-11-21T04:27:34.551Z,0
2017-11-21T04:28:44.364Z,0
2017-11-21T04:29:54.190Z,0
2017-11-21T04:31:04.272Z,0
2017-11-21T04:32:14.068Z,0
2017-11-21T04:33:23.889Z,0
2017-11-21T04:34:33.710Z,0
2017-11-21T04:35:43.524Z,0
2017-11-21T04:36:53.588Z,0
2017-11-21T04:38:03.643Z,0
2017-11-21T04:39:13.453Z,0
2017-11-21T04:40:23.265Z,0
2017-11-21T04:41:33.059Z,0
2017-11-21T04:42:42.861Z,0
2017-11-21T04:43:52.736Z,0
2017-11-21T04:45:02.839Z,0
2017-11-21T04:46:12.918Z,0
2017-11-21T04:47:22.722Z,0
2017-11-21T04:48:32.531Z,0
2017-11-21T04:49:42.640Z,0
2017-11-21T04:50:52.700Z,0
2017-11-21T04:52:02.792Z,0
2017-11-21T04:53:12.880Z,0
2017-11-21T04:54:22.721Z,0
2017-11-21T04:55:32.786Z,0
2017-11-21T04:56:42.624Z,0
2017-11-21T04:57:52.729Z,0
2017-11-21T04:59:02.534Z,0
2017-11-21T05:00:12.339Z,0
2017-11-21T05:01:21.938Z,0
2017-11-21T05:02:32.004Z,0
2017-11-21T05:03:41.816Z,0
2017-11-21T05:04:51.634Z,0
2017-11-21T05:06:01.446Z,0
2017-11-21T05:07:11.256Z,0
2017-11-21T05:08:21.342Z,0
2017-11-21T05:09:31.409Z,0
2017-11-21T05:10:41.507Z,0
2017-11-21T05:11:51.572Z,0
2017-11-21T05:13:01.447Z,0
2017-11-21T05:14:11.220Z,0
2017-11-21T05:15:21.020Z,0
2017-11-21T05:16:30.830Z,0
2017-11-21T05:17:40.630Z,0
2017-11-21T05:18:50.753Z,0
2017-11-21T05:20:00.558Z,0
2017-11-21T05:21:10.619Z,0
2017-11-21T05:22:20.693Z,0
2017-11-21T05:23:30.752Z,0
2017-11-21T05:24:40.842Z,0
2017-11-21T05:25:50.394Z,0
2017-11-21T05:27:00.221Z,0
2017-11-21T05:28:10.291Z,0
2017-11-21T05:29:19.831Z,0
2017-11-21T05:30:29.655Z,0
2017-11-21T05:31:39.712Z,0
2017-11-21T05:32:49.798Z,0
2017-11-21T05:33:59.332Z,0
2017-11-21T05:35:09.416Z,0
2017-11-21T05:36:19.491Z,0
2017-11-21T05:37:29.307Z,0
2017-11-21T05:38:39.120Z,0
2017-11-21T05:39:48.925Z,0
2017-11-21T05:40:58.468Z,0
2017-11-21T05:42:08.273Z,0
2017-11-21T05:43:18.092Z,0
2017-11-21T05:44:27.927Z,0
2017-11-21T05:45:38.020Z,0
2017-11-21T05:46:48.114Z,0
2017-11-21T05:47:58.186Z,0
2017-11-21T05:49:08.283Z,0
2017-11-21T05:50:17.835Z,0
2017-11-21T05:51:27.635Z,4
2017-11-21T05:52:37.179Z,4
2017-11-21T05:53:46.985Z,4
2017-11-21T05:54:57.066Z,0
2017-11-21T05:56:06.864Z,0
2017-11-21T05:57:16.923Z,4
2017-11-21T05:58:26.757Z,4
2017-11-21T05:59:36.578Z,4
2017-11-21T06:00:46.649Z,4
2017-11-21T06:01:56.722Z,4
2017-11-21T06:03:06.801Z,4
2017-11-21T06:04:16.616Z,8
2017-11-21T06:05:26.181Z,4
2017-11-21T06:06:35.993Z,8
2017-11-21T06:07:45.798Z,8
2017-11-21T06:08:55.887Z,12
2017-11-21T06:10:05.975Z,12
2017-11-21T06:11:16.056Z,16
2017-11-21T06:12:25.870Z,12
2017-11-21T06:13:35.957Z,16
2017-11-21T06:14:46.048Z,16
2017-11-21T06:15:56.123Z,20
2017-11-21T06:17:05.926Z,20
2017-11-21T06:18:16.052Z,20
2017-11-21T06:19:26.126Z,24
2017-11-21T06:20:36.191Z,28
2017-11-21T06:21:47.575Z,32
2017-11-21T06:22:57.383Z,36
2017-11-21T06:24:07.204Z,40
2017-11-21T06:25:17.026Z,40
2017-11-21T06:26:26.884Z,40
2017-11-21T06:27:36.684Z,36
2017-11-21T06:28:46.779Z,40
2017-11-21T06:29:56.886Z,44
2017-11-21T06:31:06.974Z,44
2017-11-21T06:32:16.788Z,52
2017-11-21T06:33:26.881Z,56
2017-11-21T06:34:37.021Z,64
2017-11-21T06:35:46.822Z,68
2017-11-21T06:36:57.207Z,72
2017-11-21T06:38:07.287Z,76
2017-11-21T06:39:17.363Z,80
2017-11-21T06:40:27.485Z,88
2017-11-21T06:41:37.543Z,92
2017-11-21T06:42:47.609Z,100
2017-11-21T06:43:57.688Z,104
2017-11-21T06:45:07.753Z,112
2017-11-21T06:46:17.809Z,116
2017-11-21T06:47:27.867Z,120
2017-11-21T06:48:37.663Z,124
2017-11-21T06:49:47.744Z,128
2017-11-21T06:50:57.810Z,128
2017-11-21T06:52:07.673Z,128
2017-11-21T06:53:17.750Z,140
2017-11-21T06:54:27.562Z,152
2017-11-21T06:55:37.666Z,164
2017-11-21T06:56:47.480Z,176
2017-11-21T06:57:57.458Z,188
2017-11-21T06:59:07.267Z,200
2017-11-21T07:00:17.358Z,212
2017-11-21T07:01:27.421Z,224
2017-11-21T07:02:37.489Z,228
2017-11-21T07:03:47.346Z,240
2017-11-21T07:04:56.898Z,248
2017-11-21T07:06:06.885Z,260
2017-11-21T07:07:16.426Z,272
2017-11-21T07:08:26.237Z,276
2017-11-21T07:09:36.119Z,280
2017-11-21T07:10:45.961Z,280
2017-11-21T07:11:55.777Z,268
2017-11-21T07:13:05.589Z,260
2017-11-21T07:14:15.678Z,252
2017-11-21T07:15:25.797Z,256
2017-11-21T07:16:35.866Z,272
2017-11-21T07:17:45.952Z,288
2017-11-21T07:18:56.036Z,300
2017-11-21T07:20:06.137Z,308
2017-11-21T07:21:16.003Z,304
2017-11-21T07:22:26.083Z,320
2017-11-21T07:23:36.181Z,312
2017-11-21T07:24:46.263Z,296
2017-11-21T07:25:55.529Z,284
2017-11-21T07:27:05.337Z,284
2017-11-21T07:28:15.413Z,284
2017-11-21T07:29:25.481Z,292
2017-11-21T07:30:35.021Z,304
2017-11-21T07:31:44.831Z,340
2017-11-21T07:32:54.635Z,392
2017-11-21T07:34:04.760Z,432
2017-11-21T07:35:14.581Z,468
2017-11-21T07:36:24.434Z,496
2017-11-21T07:37:34.508Z,560
2017-11-21T07:38:44.308Z,596
2017-11-21T07:39:54.394Z,616
2017-11-21T07:41:03.981Z,624
2017-11-21T07:42:13.790Z,608
2017-11-21T07:43:23.843Z,596
2017-11-21T07:44:33.386Z,596
2017-11-21T07:45:43.182Z,588
2017-11-21T07:46:53.271Z,560
2017-11-21T07:48:03.327Z,512
2017-11-21T07:49:13.415Z,440
2017-11-21T07:50:23.243Z,408
2017-11-21T07:51:33.311Z,424
2017-11-21T07:52:42.845Z,476
2017-11-21T07:53:52.386Z,536
2017-11-21T07:55:02.525Z,572
2017-11-21T07:56:12.375Z,588
2017-11-21T07:57:22.459Z,584
2017-11-21T07:58:32.554Z,556
2017-11-21T07:59:42.620Z,528
2017-11-21T08:00:52.154Z,532
2017-11-21T08:02:02.244Z,560
2017-11-21T08:03:12.066Z,580
2017-11-21T08:04:21.881Z,580
2017-11-21T08:05:31.419Z,568
2017-11-21T08:06:41.212Z,556
2017-11-21T08:07:50.746Z,572
2017-11-21T08:09:00.802Z,612
2017-11-21T08:10:10.352Z,664
2017-11-21T08:11:20.408Z,696
2017-11-21T08:12:30.465Z,716
2017-11-21T08:13:40.294Z,760
2017-11-21T08:14:50.361Z,768
2017-11-21T08:15:59.652Z,784
2017-11-21T08:17:09.764Z,844
2017-11-21T08:18:19.561Z,936
2017-11-21T08:19:29.361Z,988
2017-11-21T08:20:39.430Z,1000
2017-11-21T08:21:49.249Z,1020
2017-11-21T08:22:59.327Z,1052
2017-11-21T08:24:09.152Z,1040
2017-11-21T08:25:19.046Z,1052
2017-11-21T08:26:28.590Z,1112
2017-11-21T08:27:38.665Z,1176
2017-11-21T08:28:48.754Z,1212
2017-11-21T08:29:58.872Z,1212
2017-11-21T08:31:08.987Z,1208
2017-11-21T08:32:19.079Z,1140
2017-11-21T08:33:29.149Z,1012
2017-11-21T08:34:38.688Z,952
2017-11-21T08:35:48.764Z,980
2017-11-21T08:36:58.882Z,1000
2017-11-21T08:38:08.990Z,896
2017-11-21T08:39:19.082Z,860
2017-11-21T08:40:28.625Z,840
2017-11-21T08:41:38.153Z,796
2017-11-21T08:42:48.010Z,732
2017-11-21T08:43:58.136Z,696
2017-11-21T08:45:07.697Z,672
2017-11-21T08:46:17.247Z,756
2017-11-21T08:47:26.783Z,872
2017-11-21T08:48:36.394Z,1052
2017-11-21T08:49:46.512Z,1144
2017-11-21T08:50:56.607Z,1024
2017-11-21T08:52:06.680Z,928
2017-11-21T08:53:16.489Z,820
2017-11-21T08:54:26.609Z,728
2017-11-21T08:55:36.669Z,832
2017-11-21T08:56:46.750Z,1052
2017-11-21T08:57:56.573Z,1056
2017-11-21T08:59:06.350Z,1084
2017-11-21T09:00:16.429Z,1128
2017-11-21T09:01:26.235Z,1196
2017-11-21T09:02:36.317Z,1216
2017-11-21T09:03:46.157Z,1188
2017-11-21T09:04:55.967Z,1052
2017-11-21T09:06:05.767Z,960
2017-11-21T09:07:15.586Z,880
2017-11-21T09:08:25.649Z,924
2017-11-21T09:09:35.463Z,908
2017-11-21T09:10:45.277Z,940
2017-11-21T09:11:55.400Z,1028
2017-11-21T09:13:05.205Z,1116
2017-11-21T09:14:15.277Z,1176
2017-11-21T09:15:25.349Z,1212
2017-11-21T09:16:35.167Z,1256
2017-11-21T09:17:45.045Z,1344
2017-11-21T09:18:54.610Z,1392
2017-11-21T09:20:04.696Z,1432
2017-11-21T09:21:14.805Z,1452
2017-11-21T09:22:24.648Z,1424
2017-11-21T09:23:34.472Z,1356
2017-11-21T09:24:44.562Z,1264
2017-11-21T09:25:54.385Z,1180
2017-11-21T09:27:03.920Z,1128
2017-11-21T09:28:14.017Z,1076
2017-11-21T09:29:23.926Z,968
2017-11-21T09:30:34.002Z,896
2017-11-21T09:31:43.819Z,880
2017-11-21T09:32:53.657Z,940
2017-11-21T09:34:03.467Z,972
2017-11-21T09:35:13.318Z,1012
2017-11-21T09:36:23.135Z,1008
2017-11-21T09:37:33.216Z,1056
2017-11-21T09:38:43.281Z,1048
2017-11-21T09:39:53.368Z,988
2017-11-21T09:41:03.159Z,964
2017-11-21T09:42:13.295Z,1012
2017-11-21T09:43:23.634Z,972
2017-11-21T09:44:33.442Z,984
2017-11-21T09:45:43.013Z,916
2017-11-21T09:46:53.095Z,968
2017-11-21T09:48:03.228Z,1216
2017-11-21T09:49:13.035Z,1288
2017-11-21T09:50:22.566Z,1200
2017-11-21T09:51:32.369Z,1128
2017-11-21T09:52:42.201Z,1180
2017-11-21T09:53:52.329Z,1184
2017-11-21T09:55:02.413Z,1184
2017-11-21T09:56:11.951Z,1192
2017-11-21T09:57:21.777Z,1240
2017-11-21T09:58:31.853Z,1300
2017-11-21T09:59:42.173Z,1328
2017-11-21T10:00:52.244Z,1264
2017-11-21T10:02:02.332Z,1220
2017-11-21T10:03:12.425Z,1172
2017-11-21T10:04:22.514Z,996
2017-11-21T10:05:33.384Z,968
2017-11-21T10:06:43.203Z,976
2017-11-21T10:07:53.308Z,920
2017-11-21T10:09:03.115Z,884
2017-11-21T10:10:13.215Z,976
2017-11-21T10:11:23.371Z,1004
2017-11-21T10:12:33.189Z,1080
2017-11-21T10:13:43.022Z,1132
2017-11-21T10:14:52.833Z,1084
2017-11-21T10:16:02.643Z,1148
2017-11-21T10:17:12.443Z,1180
2017-11-21T10:18:22.242Z,1244
2017-11-21T10:19:31.786Z,1404
2017-11-21T10:20:41.604Z,1596
2017-11-21T10:21:51.158Z,1284
2017-11-21T10:23:01.315Z,1268
2017-11-21T10:24:11.114Z,1256
2017-11-21T10:25:20.944Z,1348
2017-11-21T10:26:30.761Z,1476
2017-11-21T10:27:40.853Z,1476
2017-11-21T10:28:51.028Z,1520
2017-11-21T10:30:01.105Z,1412
2017-11-21T10:31:11.188Z,1420
2017-11-21T10:32:20.770Z,1528
2017-11-21T10:33:30.321Z,1728
2017-11-21T10:34:40.470Z,1808
2017-11-21T10:35:50.565Z,1704
2017-11-21T10:37:00.382Z,1596
2017-11-21T10:38:10.202Z,1520
2017-11-21T10:39:20.085Z,1560
2017-11-21T10:40:30.237Z,1496
2017-11-21T10:41:41.313Z,1352
2017-11-21T10:42:51.121Z,1448
2017-11-21T10:44:01.600Z,1600
2017-11-21T10:45:11.677Z,1632
2017-11-21T10:46:21.497Z,1744
2017-11-21T10:47:31.592Z,1808
2017-11-21T10:48:41.674Z,1784
2017-11-21T10:49:51.260Z,1660
2017-11-21T10:51:01.338Z,1652
2017-11-21T10:52:11.205Z,1660
2017-11-21T10:53:21.033Z,1784
2017-11-21T10:54:30.580Z,1876
2017-11-21T10:55:40.658Z,1884
2017-11-21T10:56:50.475Z,1848
2017-11-21T10:58:00.036Z,1968
2017-11-21T10:59:10.524Z,2028
2017-11-21T11:00:20.589Z,2020
2017-11-21T11:01:30.680Z,1988
2017-11-21T11:02:41.520Z,2196
2017-11-21T11:03:51.600Z,2092
2017-11-21T11:05:01.419Z,1928
2017-11-21T11:06:11.511Z,2012
2017-11-21T11:07:21.577Z,1920
2017-11-21T11:08:31.142Z,1760
2017-11-21T11:09:41.311Z,1648
2017-11-21T11:10:51.838Z,1568
2017-11-21T11:12:01.127Z,1584
2017-11-21T11:13:10.943Z,1452
2017-11-21T11:14:21.030Z,1436
2017-11-21T11:15:30.916Z,1416
2017-11-21T11:16:40.731Z,1416
2017-11-21T11:17:50.563Z,1524
2017-11-21T11:19:00.637Z,1636
2017-11-21T11:20:10.193Z,1600
2017-11-21T11:21:20.324Z,1552
2017-11-21T11:22:30.165Z,1736
2017-11-21T11:23:40.252Z,1572
2017-11-21T11:24:50.346Z,1524
2017-11-21T11:26:00.421Z,1484
2017-11-21T11:27:10.275Z,1792
2017-11-21T11:28:19.844Z,1952
2017-11-21T11:29:29.660Z,2064
2017-11-21T11:30:39.491Z,2068
2017-11-21T11:31:49.285Z,1880
2017-11-21T11:32:59.347Z,1708
2017-11-21T11:34:08.902Z,1548
2017-11-21T11:35:18.999Z,1588
2017-11-21T11:36:29.072Z,1792
2017-11-21T11:37:38.896Z,1948
2017-11-21T11:38:48.974Z,1976
2017-11-21T11:39:58.806Z,1796
2017-11-21T11:41:08.362Z,1700
2017-11-21T11:42:18.159Z,1608
2017-11-21T11:43:28.237Z,1604
2017-11-21T11:44:38.102Z,1712
2017-11-21T11:45:48.183Z,1728
2017-11-21T11:46:57.725Z,1596
2017-11-21T11:48:07.000Z,1524
2017-11-21T11:49:17.066Z,1508
2017-11-21T11:50:27.233Z,1524
2017-11-21T11:51:37.280Z,1460
2017-11-21T11:52:47.340Z,1352
2017-11-21T11:53:57.423Z,1252
2017-11-21T11:55:07.543Z,1284
2017-11-21T11:56:17.615Z,1292
2017-11-21T11:57:27.707Z,1452
2017-11-21T11:58:37.516Z,1432
2017-11-21T11:59:47.053Z,1444
2017-11-21T12:00:57.138Z,1376
2017-11-21T12:02:06.765Z,1264
2017-11-21T12:03:16.864Z,1236
2017-11-21T12:04:26.410Z,1188
2017-11-21T12:05:36.508Z,1152
2017-11-21T12:06:46.296Z,1068
2017-11-21T12:07:56.159Z,1060
2017-11-21T12:09:05.976Z,1112
2017-11-21T12:10:16.093Z,1152
2017-11-21T12:11:25.898Z,1260
2017-11-21T12:12:35.443Z,1380
2017-11-21T12:13:45.559Z,1524
2017-11-21T12:14:55.351Z,1572
2017-11-21T12:16:05.164Z,1560
2017-11-21T12:17:15.282Z,1504
2017-11-21T12:18:25.104Z,1416
2017-11-21T12:19:34.971Z,1368
2017-11-21T12:20:44.787Z,1280
2017-11-21T12:21:54.613Z,1284
2017-11-21T12:23:04.687Z,1400
2017-11-21T12:24:14.799Z,1500
2017-11-21T12:25:24.940Z,1576
2017-11-21T12:26:35.008Z,1764
2017-11-21T12:27:44.563Z,1904
2017-11-21T12:28:54.636Z,1984
2017-11-21T12:30:05.152Z,2088
2017-11-21T12:31:15.230Z,2216
2017-11-21T12:32:25.029Z,2200
2017-11-21T12:33:35.123Z,2388
2017-11-21T12:34:45.222Z,2448
2017-11-21T12:35:55.073Z,2344
2017-11-21T12:37:04.888Z,2276
2017-11-21T12:38:14.987Z,2152
2017-11-21T12:39:24.538Z,1900
2017-11-21T12:40:34.637Z,1680
2017-11-21T12:41:44.181Z,1540
2017-11-21T12:42:54.325Z,1356
2017-11-21T12:44:04.142Z,1244
2017-11-21T12:45:13.965Z,1248
2017-11-21T12:46:23.769Z,1084
2017-11-21T12:47:33.851Z,1004
2017-11-21T12:48:43.713Z,940
2017-11-21T12:49:53.796Z,880
2017-11-21T12:51:04.899Z,872
2017-11-21T12:52:14.992Z,836
2017-11-21T12:53:24.837Z,772
2017-11-21T12:54:34.984Z,752
2017-11-21T12:55:44.574Z,756
2017-11-21T12:56:54.132Z,764
2017-11-21T12:58:04.213Z,812
2017-11-21T12:59:14.285Z,804
2017-11-21T13:00:24.426Z,828
2017-11-21T13:01:34.518Z,860
2017-11-21T13:02:44.612Z,888
2017-11-21T13:03:54.678Z,904
2017-11-21T13:05:04.774Z,872
2017-11-21T13:06:14.851Z,804
2017-11-21T13:07:24.643Z,808
2017-11-21T13:08:34.464Z,892
2017-11-21T13:09:44.550Z,1072
2017-11-21T13:10:54.369Z,1304
2017-11-21T13:12:04.536Z,1464
2017-11-21T13:13:14.339Z,1484
2017-11-21T13:14:23.899Z,1384
2017-11-21T13:15:33.705Z,1296
2017-11-21T13:16:43.541Z,1224
2017-11-21T13:17:53.450Z,1156
2017-11-21T13:19:03.515Z,1176
2017-11-21T13:20:13.309Z,1252
2017-11-21T13:21:23.114Z,1316
2017-11-21T13:22:33.193Z,1364
2017-11-21T13:23:43.286Z,1356
2017-11-21T13:24:53.090Z,1352
2017-11-21T13:26:02.918Z,1324
2017-11-21T13:27:13.016Z,1288
2017-11-21T13:28:23.084Z,1212
2017-11-21T13:29:32.890Z,1100
2017-11-21T13:30:42.970Z,964
2017-11-21T13:31:52.794Z,868
2017-11-21T13:33:02.906Z,824
2017-11-21T13:34:12.725Z,800
2017-11-21T13:35:22.576Z,784
2017-11-21T13:36:32.660Z,764
2017-11-21T13:37:42.735Z,764
2017-11-21T13:38:52.537Z,828
2017-11-21T13:40:02.353Z,916
2017-11-21T13:41:12.167Z,960
2017-11-21T13:42:22.253Z,948
2017-11-21T13:43:32.356Z,900
2017-11-21T13:44:42.441Z,852
2017-11-21T13:45:52.540Z,752
2017-11-21T13:47:02.667Z,728
2017-11-21T13:48:12.501Z,732
2017-11-21T13:49:22.056Z,716
2017-11-21T13:50:31.341Z,672
2017-11-21T13:51:40.899Z,636
2017-11-21T13:52:50.728Z,576
2017-11-21T13:54:00.554Z,516
2017-11-21T13:55:10.660Z,508
2017-11-21T13:56:20.756Z,516
2017-11-21T13:57:30.853Z,496
2017-11-21T13:58:40.441Z,464
2017-11-21T13:59:50.527Z,468
2017-11-21T14:01:00.607Z,492
2017-11-21T14:02:10.690Z,516
2017-11-21T14:03:20.511Z,564
2017-11-21T14:04:30.640Z,612
2017-11-21T14:05:40.730Z,628
2017-11-21T14:06:50.803Z,628
2017-11-21T14:08:00.619Z,620
2017-11-21T14:09:10.710Z,596
2017-11-21T14:10:20.534Z,564
2017-11-21T14:11:30.368Z,524
2017-11-21T14:12:40.447Z,476
2017-11-21T14:13:50.509Z,428
2017-11-21T14:15:01.530Z,388
2017-11-21T14:16:11.076Z,376
2017-11-21T14:17:21.201Z,376
2017-11-21T14:18:31.025Z,360
2017-11-21T14:19:41.106Z,336
2017-11-21T14:20:51.206Z,316
2017-11-21T14:22:02.352Z,300
2017-11-21T14:23:12.438Z,288
2017-11-21T14:24:22.263Z,280
2017-11-21T14:25:33.205Z,264
2017-11-21T14:26:43.281Z,240
2017-11-21T14:27:53.354Z,224
2017-11-21T14:29:03.160Z,208
2017-11-21T14:30:13.247Z,204
2017-11-21T14:31:23.337Z,188
2017-11-21T14:32:33.432Z,180
2017-11-21T14:33:43.238Z,172
2017-11-21T14:34:53.310Z,160
2017-11-21T14:36:02.869Z,152
2017-11-21T14:37:12.426Z,152
2017-11-21T14:38:22.495Z,144
2017-11-21T14:39:32.629Z,132
2017-11-21T14:40:42.709Z,124
2017-11-21T14:41:52.251Z,120
2017-11-21T14:43:01.813Z,116
2017-11-21T14:44:11.635Z,108
2017-11-21T14:45:21.763Z,112
2017-11-21T14:46:31.826Z,112
2017-11-21T14:47:41.900Z,104
2017-11-21T14:48:51.985Z,104
2017-11-21T14:50:01.787Z,100
2017-11-21T14:51:11.754Z,96
2017-11-21T14:52:21.584Z,96
2017-11-21T14:53:31.689Z,88
2017-11-21T14:54:41.230Z,80
2017-11-21T14:55:51.315Z,76
2017-11-21T14:57:01.453Z,76
2017-11-21T14:58:11.817Z,72
2017-11-21T14:59:21.641Z,68
2017-11-21T15:00:31.722Z,60
2017-11-21T15:01:41.802Z,48
2017-11-21T15:02:52.646Z,40
2017-11-21T15:04:05.018Z,36
2017-11-21T15:05:16.793Z,32
2017-11-21T15:06:29.530Z,36
2017-11-21T15:07:44.554Z,36
2017-11-21T15:08:58.944Z,36
2017-11-21T15:10:12.813Z,32
2017-11-21T15:11:27.188Z,24
2017-11-21T15:12:38.129Z,20
2017-11-21T15:13:47.956Z,20
2017-11-21T15:14:58.060Z,20
2017-11-21T15:16:08.166Z,20
2017-11-21T15:17:17.717Z,16
2017-11-21T15:18:27.558Z,16
2017-11-21T15:19:37.676Z,12
2017-11-21T15:20:47.501Z,8
2017-11-21T15:21:57.321Z,8
2017-11-21T15:23:07.141Z,8
2017-11-21T15:24:17.221Z,4
2017-11-21T15:25:27.360Z,4
2017-11-21T15:26:37.449Z,4
2017-11-21T15:27:47.536Z,4
2017-11-21T15:28:57.380Z,0
2017-11-21T15:30:07.468Z,4
2017-11-21T15:31:17.607Z,4
2017-11-21T15:32:27.688Z,0
2017-11-21T15:33:37.520Z,0
2017-11-21T15:34:47.335Z,0
2017-11-21T15:35:56.890Z,0
2017-11-21T15:37:07.021Z,0
2017-11-21T15:38:17.104Z,0
2017-11-21T15:39:27.179Z,0
2017-11-21T15:40:37.283Z,0
2017-11-21T15:41:47.418Z,0
2017-11-21T15:42:57.560Z,0
2017-11-21T15:44:07.674Z,0
2017-11-21T15:45:17.793Z,0
2017-11-21T15:46:27.646Z,0
2017-11-21T15:47:37.793Z,0
2017-11-21T15:48:47.675Z,0
2017-11-21T15:49:57.534Z,0
2017-11-21T15:51:07.114Z,0
2017-11-21T15:52:17.240Z,0
2017-11-21T15:53:27.502Z,0
2017-11-21T15:54:37.646Z,0
2017-11-21T15:55:47.507Z,0
2017-11-21T15:56:57.122Z,0
2017-11-21T15:58:06.938Z,0
2017-11-21T15:59:16.510Z,0
2017-11-21T16:00:26.729Z,0
2017-11-21T16:01:36.866Z,0
2017-11-21T16:02:46.992Z,0
2017-11-21T16:03:57.126Z,0
2017-11-21T16:05:06.710Z,0
2017-11-21T16:06:16.588Z,0
2017-11-21T16:07:26.727Z,0
2017-11-21T16:08:36.554Z,0
2017-11-21T16:09:46.402Z,0
2017-11-21T16:10:56.505Z,0
2017-11-21T16:12:06.656Z,0
2017-11-21T16:13:15.952Z,0
2017-11-21T16:14:25.785Z,0
2017-11-21T16:15:35.902Z,0
2017-11-21T16:17:00.334Z,0
2017-11-21T16:18:11.512Z,0
2017-11-21T16:19:21.687Z,0
2017-11-21T16:20:31.833Z,0
2017-11-21T16:21:41.420Z,0
2017-11-21T16:22:51.341Z,0
2017-11-21T16:24:01.178Z,0
2017-11-21T16:25:11.030Z,0
2017-11-21T16:26:20.880Z,0
2017-11-21T16:27:31.223Z,0
2017-11-21T16:28:41.426Z,0
2017-11-21T16:29:51.246Z,0
2017-11-21T16:31:01.086Z,0
2017-11-21T16:32:11.229Z,0
2017-11-21T16:33:21.379Z,0
2017-11-21T16:34:31.612Z,0
2017-11-21T16:35:41.497Z,0
2017-11-21T16:36:51.097Z,0
2017-11-21T16:38:01.277Z,0
2017-11-21T16:39:11.410Z,0
2017-11-21T16:40:21.355Z,0
2017-11-21T16:41:31.220Z,0
2017-11-21T16:42:40.801Z,0
2017-11-21T16:43:50.912Z,0
2017-11-21T16:45:01.013Z,0
2017-11-21T16:46:10.934Z,0
2017-11-21T16:47:20.509Z,0
2017-11-21T16:48:30.162Z,0
2017-11-21T16:49:40.013Z,0
2017-11-21T16:50:49.910Z,0
2017-11-21T16:52:00.046Z,0
2017-11-21T16:53:09.915Z,0
2017-11-21T16:54:20.043Z,0
2017-11-21T16:55:31.359Z,0
2017-11-21T16:56:41.497Z,0
2017-11-21T16:57:51.683Z,0